Time;durP1;ratioP1;P1;durP2;ratioP2;P2;SDS_P1;SDS_P2;PMS_P1;PMS_P2;Temp;Humidity;BMP_temperature;BMP_pressure;BME280_temperature;BME280_humidity;BME280_pressure;Samples;Min_cycle;Max_cycle;Signal;HPM_P1;HPM_P2
2023/11/18 00:01:50;;;;;;;3.15;2.88;;;;;;;;;;4975870;28;20037;-63
2023/11/18 00:04:15;;;;;;;3.80;3.50;;;;;;;;;;4975270;28;20058;-64
2023/11/18 00:06:43;;;;;;;3.65;3.30;;;;;;;;;;4975514;28;20046;-64
2023/11/18 00:09:13;;;;;;;3.33;2.67;;;;;;;;;;4975383;28;20022;-63
2023/11/18 00:11:39;;;;;;;3.05;2.75;;;;;;;;;;4975466;28;20030;-57
2023/11/18 00:14:04;;;;;;;2.60;2.40;;;;;;;;;;4942110;28;20382;-58
2023/11/18 00:16:34;;;;;;;2.90;2.70;;;;;;;;;;4975716;28;20462;-63
2023/11/18 00:19:01;;;;;;;;;;;;;;;;;;4974694;28;20093;-63
2023/11/18 00:21:27;;;;;;;3.35;2.65;;;;;;;;;;4975470;28;19980;-63
2023/11/18 00:23:53;;;;;;;3.45;2.83;;;;;;;;;;4974252;28;20398;-63
2023/11/18 00:26:18;;;;;;;2.33;2.20;;;;;;;;;;4957782;28;20022;-63
2023/11/18 00:28:48;;;;;;;2.53;2.33;;;;;;;;;;4973868;28;20027;-64
2023/11/18 00:31:13;;;;;;;2.50;2.25;;;;;;;;;;4975347;28;20035;-58
2023/11/18 00:33:39;;;;;;;2.00;1.90;;;;;;;;;;4973768;28;20414;-57
2023/11/18 00:36:05;;;;;;;2.20;2.00;;;;;;;;;;4975627;28;20062;-58
2023/11/18 00:38:31;;;;;;;2.42;2.22;;;;;;;;;;4973855;28;20033;-57
2023/11/18 00:40:56;;;;;;;2.50;2.30;;;;;;;;;;4974136;28;20031;-62
2023/11/18 00:43:22;;;;;;;2.42;2.22;;;;;;;;;;4974693;28;20041;-62
2023/11/18 00:45:47;;;;;;;2.35;2.25;;;;;;;;;;4974929;28;20109;-61
2023/11/18 00:48:14;;;;;;;2.63;2.45;;;;;;;;;;4975077;28;20049;-62
2023/11/18 00:50:40;;;;;;;2.47;2.22;;;;;;;;;;4974486;28;20026;-56
2023/11/18 00:53:06;;;;;;;2.53;2.42;;;;;;;;;;4973318;28;20486;-55
2023/11/18 00:55:31;;;;;;;2.30;2.20;;;;;;;;;;4974783;28;20027;-61
2023/11/18 00:57:58;;;;;;;2.70;2.50;;;;;;;;;;4989738;28;20031;-62
2023/11/18 01:00:26;;;;;;;2.67;2.40;;;;;;;;;;4975010;28;20018;-62
2023/11/18 01:02:53;;;;;;;2.70;2.50;;;;;;;;;;4974980;28;20022;-57
2023/11/18 01:05:20;;;;;;;2.60;2.40;;;;;;;;;;4973065;28;20038;-57
2023/11/18 01:07:45;;;;;;;2.20;2.10;;;;;;;;;;4974542;28;20022;-62
2023/11/18 01:10:11;;;;;;;2.38;2.20;;;;;;;;;;4973261;28;20452;-62
2023/11/18 01:12:36;;;;;;;2.50;2.40;;;;;;;;;;4957702;28;20110;-62
2023/11/18 01:15:03;;;;;;;2.03;1.92;;;;;;;;;;4989474;28;20371;-57
2023/11/18 01:17:29;;;;;;;2.55;2.40;;;;;;;;;;4974508;28;20134;-58
2023/11/18 01:19:55;;;;;;;2.30;2.20;;;;;;;;;;4974795;28;20101;-62
2023/11/18 01:22:21;;;;;;;2.20;2.10;;;;;;;;;;4975032;28;20101;-63
2023/11/18 01:24:47;;;;;;;1.98;1.88;;;;;;;;;;4974069;28;20046;-62
2023/11/18 01:27:12;;;;;;;2.42;2.33;;;;;;;;;;4974226;28;20417;-57
2023/11/18 01:29:39;;;;;;;2.17;2.08;;;;;;;;;;4974481;28;20383;-57
2023/11/18 01:32:09;;;;;;;2.40;2.20;;;;;;;;;;4974756;28;20035;-57
2023/11/18 01:34:39;;;;;;;3.80;3.50;;;;;;;;;;4977399;28;20041;-57
2023/11/18 01:37:07;;;;;;;3.70;3.47;;;;;;;;;;4978271;28;20073;-57
2023/11/18 01:39:33;;;;;;;2.80;2.30;;;;;;;;;;4977290;28;20114;-58
2023/11/18 01:41:59;;;;;;;2.40;2.20;;;;;;;;;;4977289;28;20121;-57
2023/11/18 01:44:25;;;;;;;2.85;2.63;;;;;;;;;;4978235;28;20070;-61
2023/11/18 01:46:50;;;;;;;9.75;6.18;;;;;;;;;;4978341;28;20035;-56
2023/11/18 01:49:18;;;;;;;5.18;3.90;;;;;;;;;;4993169;28;20031;-56
2023/11/18 01:51:45;;;;;;;36.00;21.05;;;;;;;;;;4978002;28;20110;-57
2023/11/18 01:54:14;;;;;;;15.02;9.65;;;;;;;;;;4978040;28;20047;-62
2023/11/18 01:56:45;;;;;;;22.27;14.23;;;;;;;;;;4976543;28;20053;-62
2023/11/18 01:59:17;;;;;;;8.57;6.32;;;;;;;;;;4976588;28;20026;-62
2023/11/18 02:01:46;;;;;;;31.55;18.67;;;;;;;;;;4977146;28;20150;-62
2023/11/18 02:04:12;;;;;;;17.40;12.48;;;;;;;;;;4992233;28;20108;-62
2023/11/18 02:06:38;;;;;;;17.83;13.05;;;;;;;;;;4976109;28;20039;-63
2023/11/18 02:09:03;;;;;;;6.85;6.10;;;;;;;;;;4976359;28;20485;-57
2023/11/18 02:11:41;;;;;;;15.57;11.57;;;;;;;;;;4977512;28;20042;-57
2023/11/18 02:14:10;;;;;;;8.90;7.57;;;;;;;;;;4976572;28;20030;-58
2023/11/18 02:16:37;;;;;;;8.00;7.20;;;;;;;;;;4982176;28;20078;-57
2023/11/18 02:19:05;;;;;;;3.25;3.05;;;;;;;;;;4992510;28;20126;-58
2023/11/18 02:21:33;;;;;;;2.47;2.33;;;;;;;;;;4977890;28;20027;-58
2023/11/18 02:23:58;;;;;;;2.85;2.63;;;;;;;;;;4992721;28;20105;-58
2023/11/18 02:26:24;;;;;;;1.95;1.85;;;;;;;;;;4977828;28;20074;-58
2023/11/18 02:28:50;;;;;;;1.90;1.80;;;;;;;;;;4959784;28;20031;-62
2023/11/18 02:31:21;;;;;;;1.92;1.83;;;;;;;;;;4992327;28;20007;-62
2023/11/18 02:33:55;;;;;;;1.83;1.73;;;;;;;;;;4991930;28;20042;-62
2023/11/18 02:36:25;;;;;;;1.70;1.60;;;;;;;;;;4992464;28;20477;-62
2023/11/18 02:38:50;;;;;;;1.58;1.55;;;;;;;;;;4977024;28;20027;-62
2023/11/18 02:41:18;;;;;;;1.65;1.55;;;;;;;;;;4976753;28;20352;-62
2023/11/18 02:43:44;;;;;;;1.90;1.80;;;;;;;;;;4959668;28;20049;-62
2023/11/18 02:46:12;;;;;;;1.73;1.63;;;;;;;;;;4976446;28;20114;-62
2023/11/18 02:48:38;;;;;;;1.77;1.67;;;;;;;;;;4977091;28;20034;-57
2023/11/18 02:51:04;;;;;;;1.52;1.45;;;;;;;;;;4976816;28;20034;-57
2023/11/18 02:53:29;;;;;;;1.63;1.52;;;;;;;;;;4976572;28;20097;-57
2023/11/18 02:56:02;;;;;;;2.17;2.08;;;;;;;;;;4976943;28;20426;-57
2023/11/18 02:58:29;;;;;;;1.50;1.50;;;;;;;;;;4976944;28;20081;-57
2023/11/18 03:00:54;;;;;;;1.65;1.55;;;;;;;;;;4992250;28;20041;-57
2023/11/18 03:03:20;;;;;;;1.88;1.77;;;;;;;;;;4992015;28;20038;-57
2023/11/18 03:05:48;;;;;;;1.85;1.75;;;;;;;;;;4991723;28;20107;-62
2023/11/18 03:08:13;;;;;;;1.77;1.67;;;;;;;;;;4977062;28;20027;-61
2023/11/18 03:10:40;;;;;;;2.00;1.90;;;;;;;;;;4976517;28;20037;-63
2023/11/18 03:13:06;;;;;;;1.90;1.80;;;;;;;;;;4991757;28;20362;-64
2023/11/18 03:15:32;;;;;;;2.00;1.90;;;;;;;;;;4976446;28;20026;-58
2023/11/18 03:17:57;;;;;;;1.83;1.73;;;;;;;;;;4990927;28;20031;-64
2023/11/18 03:20:23;;;;;;;1.48;1.48;;;;;;;;;;4975661;28;20018;-64
2023/11/18 03:22:49;;;;;;;2.10;2.00;;;;;;;;;;4976018;28;20031;-64
2023/11/18 03:25:15;;;;;;;1.95;1.85;;;;;;;;;;4976047;28;20151;-64
2023/11/18 03:27:41;;;;;;;1.98;1.88;;;;;;;;;;4976668;28;20060;-58
2023/11/18 03:30:08;;;;;;;2.20;2.05;;;;;;;;;;4976541;28;20023;-58
2023/11/18 03:32:37;;;;;;;2.35;1.70;;;;;;;;;;4976478;28;20368;-58
2023/11/18 03:35:08;;;;;;;1.65;1.55;;;;;;;;;;4976397;28;20073;-58
2023/11/18 03:37:34;;;;;;;1.50;1.30;;;;;;;;;;4991185;28;20034;-58
2023/11/18 03:39:59;;;;;;;1.20;1.20;;;;;;;;;;4958856;28;20022;-63
2023/11/18 03:42:25;;;;;;;3.60;1.10;;;;;;;;;;4975653;28;20118;-58
2023/11/18 03:44:50;;;;;;;1.00;1.00;;;;;;;;;;4975998;28;20122;-58
2023/11/18 03:47:16;;;;;;;0.90;0.90;;;;;;;;;;4975861;28;20463;-58
2023/11/18 03:49:41;;;;;;;1.88;1.08;;;;;;;;;;4976144;28;20030;-57
2023/11/18 03:52:07;;;;;;;1.05;1.05;;;;;;;;;;4958465;28;20051;-59
2023/11/18 03:54:32;;;;;;;1.27;1.17;;;;;;;;;;4976065;28;20042;-58
2023/11/18 03:56:59;;;;;;;1.50;1.40;;;;;;;;;;4975743;28;20355;-62
2023/11/18 03:59:25;;;;;;;1.15;1.15;;;;;;;;;;4990444;28;20118;-58
2023/11/18 04:01:51;;;;;;;1.40;1.33;;;;;;;;;;4990670;28;20057;-57
2023/11/18 04:04:17;;;;;;;1.17;1.13;;;;;;;;;;4975620;28;20443;-62
2023/11/18 04:06:42;;;;;;;1.10;1.10;;;;;;;;;;4975748;28;20027;-62
2023/11/18 04:09:09;;;;;;;0.93;0.93;;;;;;;;;;4975420;28;20097;-62
2023/11/18 04:11:35;;;;;;;1.00;1.00;;;;;;;;;;4975742;28;20046;-58
2023/11/18 04:14:00;;;;;;;0.90;0.90;;;;;;;;;;4990624;28;20026;-58
2023/11/18 04:16:26;;;;;;;1.30;1.20;;;;;;;;;;4975505;28;20027;-57
2023/11/18 04:18:51;;;;;;;1.30;1.30;;;;;;;;;;4975411;28;20461;-58
2023/11/18 04:21:16;;;;;;;1.88;1.30;;;;;;;;;;4975545;28;20065;-62
2023/11/18 04:23:42;;;;;;;1.38;1.27;;;;;;;;;;4975422;28;20030;-57
2023/11/18 04:26:08;;;;;;;1.70;1.27;;;;;;;;;;4989911;28;20411;-57
2023/11/18 04:28:35;;;;;;;1.10;1.10;;;;;;;;;;4990300;28;20035;-57
2023/11/18 04:31:00;;;;;;;1.40;1.30;;;;;;;;;;4975892;28;20122;-59
2023/11/18 04:33:26;;;;;;;1.38;1.33;;;;;;;;;;4975487;28;20062;-63
2023/11/18 04:35:51;;;;;;;1.00;1.00;;;;;;;;;;4990299;28;20035;-59
2023/11/18 04:38:18;;;;;;;1.20;1.20;;;;;;;;;;4975373;28;20557;-59
2023/11/18 04:40:45;;;;;;;1.08;1.08;;;;;;;;;;4975342;28;20173;-59
2023/11/18 04:43:14;;;;;;;1.10;1.10;;;;;;;;;;4989697;28;20031;-58
2023/11/18 04:45:40;;;;;;;1.50;1.40;;;;;;;;;;4974772;28;20110;-58
2023/11/18 04:48:08;;;;;;;0.93;0.93;;;;;;;;;;4992067;23;20134;-57
2023/11/18 04:50:33;;;;;;;1.00;1.00;;;;;;;;;;5001603;23;20160;-58
2023/11/18 04:52:59;;;;;;;1.02;1.02;;;;;;;;;;5002677;23;20089;-63
2023/11/18 04:55:26;;;;;;;1.27;1.17;;;;;;;;;;4993830;28;20042;-64
2023/11/18 04:57:51;;;;;;;1.20;1.10;;;;;;;;;;4994506;28;20031;-63
2023/11/18 05:00:18;;;;;;;1.10;1.10;;;;;;;;;;4994585;28;20041;-64
2023/11/18 05:02:47;;;;;;;0.98;0.98;;;;;;;;;;4993164;28;20052;-63
2023/11/18 05:05:14;;;;;;;0.98;0.98;;;;;;;;;;4993683;28;20042;-62
2023/11/18 05:07:40;;;;;;;1.10;1.10;;;;;;;;;;4994189;28;20022;-62
2023/11/18 05:10:08;;;;;;;1.10;1.10;;;;;;;;;;4998576;28;20131;-62
2023/11/18 05:12:33;;;;;;;1.13;1.13;;;;;;;;;;4997974;28;20084;-62
2023/11/18 05:14:58;;;;;;;1.38;1.35;;;;;;;;;;4997744;28;20034;-62
2023/11/18 05:17:25;;;;;;;1.00;1.00;;;;;;;;;;4997467;28;20125;-63
2023/11/18 05:19:51;;;;;;;0.93;0.93;;;;;;;;;;4985464;28;20050;-63
2023/11/18 05:22:17;;;;;;;0.90;0.90;;;;;;;;;;4960346;28;20045;-62
2023/11/18 05:24:43;;;;;;;1.08;1.08;;;;;;;;;;4977233;28;20126;-63
2023/11/18 05:27:09;;;;;;;1.35;1.20;;;;;;;;;;4978021;28;20102;-62
2023/11/18 05:29:34;;;;;;;1.67;1.25;;;;;;;;;;4977370;28;20015;-61
2023/11/18 05:31:59;;;;;;;1.08;1.08;;;;;;;;;;4977939;28;20035;-62
2023/11/18 05:34:25;;;;;;;1.00;1.00;;;;;;;;;;4977447;28;20043;-62
2023/11/18 05:36:54;;;;;;;1.00;1.00;;;;;;;;;;4977811;28;20038;-62
2023/11/18 05:39:24;;;;;;;1.10;1.02;;;;;;;;;;4977876;28;20074;-62
2023/11/18 05:41:50;;;;;;;1.52;1.42;;;;;;;;;;4959820;28;20046;-62
2023/11/18 05:44:21;;;;;;;1.45;1.35;;;;;;;;;;4959743;28;20391;-62
2023/11/18 05:46:46;;;;;;;1.30;1.23;;;;;;;;;;4977117;28;20019;-62
2023/11/18 05:49:13;;;;;;;1.13;1.13;;;;;;;;;;4977522;28;20470;-62
2023/11/18 05:51:40;;;;;;;1.00;1.00;;;;;;;;;;4977322;28;20117;-65
2023/11/18 05:54:06;;;;;;;1.20;1.20;;;;;;;;;;4977221;28;20038;-62
2023/11/18 05:56:32;;;;;;;1.10;1.10;;;;;;;;;;4977237;28;20038;-62
2023/11/18 05:58:57;;;;;;;1.50;1.40;;;;;;;;;;4959881;28;20019;-62
2023/11/18 06:01:23;;;;;;;1.23;1.23;;;;;;;;;;4960037;28;20031;-62
2023/11/18 06:03:48;;;;;;;1.10;1.10;;;;;;;;;;4977221;28;20070;-62
2023/11/18 06:06:16;;;;;;;1.67;1.20;;;;;;;;;;4977004;28;20039;-62
2023/11/18 06:08:41;;;;;;;1.98;1.83;;;;;;;;;;4977310;28;20553;-62
2023/11/18 06:11:13;;;;;;;10.07;5.18;;;;;;;;;;4976736;28;20023;-63
2023/11/18 06:13:42;;;;;;;20.63;15.80;;;;;;;;;;4959856;28;20031;-58
2023/11/18 06:16:20;;;;;;;13.38;9.73;;;;;;;;;;4959927;28;20459;-58
2023/11/18 06:18:45;;;;;;;2.35;2.25;;;;;;;;;;4976384;28;20077;-58
2023/11/18 06:21:12;;;;;;;4.47;2.80;;;;;;;;;;4977025;28;20657;-58
2023/11/18 06:23:37;;;;;;;4.22;2.80;;;;;;;;;;4977063;28;20034;-57
2023/11/18 06:26:04;;;;;;;3.38;2.45;;;;;;;;;;4959880;28;20085;-58
2023/11/18 06:28:29;;;;;;;1.52;1.42;;;;;;;;;;4976580;28;20027;-57
2023/11/18 06:30:55;;;;;;;1.13;1.10;;;;;;;;;;4976756;28;20113;-58
2023/11/18 06:33:23;;;;;;;1.80;1.70;;;;;;;;;;4989128;28;20471;-57
2023/11/18 06:35:49;;;;;;;1.75;1.65;;;;;;;;;;4978443;28;20038;-58
2023/11/18 06:38:15;;;;;;;1.63;1.52;;;;;;;;;;4995709;28;20101;-60
2023/11/18 06:40:40;;;;;;;2.05;1.95;;;;;;;;;;4996549;28;20506;-57
2023/11/18 06:43:10;;;;;;;1.98;1.80;;;;;;;;;;4996166;28;20034;-58
2023/11/18 06:45:37;;;;;;;1.88;1.77;;;;;;;;;;4996282;28;20168;-57
2023/11/18 06:48:05;;;;;;;2.20;2.10;;;;;;;;;;4995970;28;20022;-57
2023/11/18 06:50:31;;;;;;;2.35;2.15;;;;;;;;;;4995597;28;20030;-57
2023/11/18 06:53:00;;;;;;;2.40;2.30;;;;;;;;;;4950045;28;20402;-60
2023/11/18 06:55:26;;;;;;;3.05;2.42;;;;;;;;;;4958546;28;20399;-59
2023/11/18 06:57:52;;;;;;;3.00;2.80;;;;;;;;;;4976222;28;20079;-58
2023/11/18 07:00:17;;;;;;;2.47;2.38;;;;;;;;;;4975423;28;20493;-57
2023/11/18 07:02:44;;;;;;;4.20;3.90;;;;;;;;;;4975848;28;20030;-57
2023/11/18 07:05:09;;;;;;;3.40;3.17;;;;;;;;;;4975733;28;20494;-57
2023/11/18 07:07:35;;;;;;;3.40;3.20;;;;;;;;;;4976431;28;20037;-57
2023/11/18 07:10:00;;;;;;;3.60;3.33;;;;;;;;;;4976198;28;20086;-58
2023/11/18 07:12:25;;;;;;;3.45;3.30;;;;;;;;;;4976148;28;20399;-58
2023/11/18 07:14:51;;;;;;;2.97;2.78;;;;;;;;;;4976193;28;20026;-58
2023/11/18 07:17:18;;;;;;;4.57;3.83;;;;;;;;;;4976057;28;20031;-58
2023/11/18 07:19:44;;;;;;;4.00;3.70;;;;;;;;;;4975848;28;20069;-58
2023/11/18 07:22:10;;;;;;;3.58;3.38;;;;;;;;;;4975970;28;20023;-58
2023/11/18 07:24:35;;;;;;;3.90;3.60;;;;;;;;;;4975851;28;20093;-58
2023/11/18 07:27:01;;;;;;;3.20;3.00;;;;;;;;;;4975640;28;20038;-58
2023/11/18 07:29:26;;;;;;;4.60;4.25;;;;;;;;;;4975753;28;20027;-59
2023/11/18 07:31:54;;;;;;;5.15;4.65;;;;;;;;;;4975284;28;20463;-58
2023/11/18 07:34:21;;;;;;;3.85;3.53;;;;;;;;;;4975733;28;20122;-58
2023/11/18 07:36:48;;;;;;;4.65;4.25;;;;;;;;;;4975969;28;20065;-58
2023/11/18 07:39:15;;;;;;;4.80;4.40;;;;;;;;;;4975152;28;20031;-58
2023/11/18 07:41:44;;;;;;;4.90;4.50;;;;;;;;;;4975092;28;20046;-58
2023/11/18 07:44:12;;;;;;;4.43;4.07;;;;;;;;;;4975368;28;20471;-58
2023/11/18 07:46:38;;;;;;;6.40;4.97;;;;;;;;;;4975245;28;20030;-59
2023/11/18 07:49:03;;;;;;;5.65;4.97;;;;;;;;;;4975237;28;20035;-58
2023/11/18 07:51:29;;;;;;;5.85;5.25;;;;;;;;;;4975392;28;20038;-58
2023/11/18 07:53:54;;;;;;;6.20;5.28;;;;;;;;;;4977146;28;20213;-59
2023/11/18 07:56:22;;;;;;;5.60;5.10;;;;;;;;;;4994732;28;20088;-58
2023/11/18 07:58:47;;;;;;;6.53;4.57;;;;;;;;;;4994615;28;20042;-58
2023/11/18 08:01:15;;;;;;;19.40;13.75;;;;;;;;;;4994388;28;20482;-57
2023/11/18 08:03:41;;;;;;;17.33;12.43;;;;;;;;;;4994471;28;20038;-58
2023/11/18 08:06:07;;;;;;;15.57;13.65;;;;;;;;;;4994657;28;20031;-56
2023/11/18 08:08:38;;;;;;;8.98;8.13;;;;;;;;;;4994262;28;20027;-56
2023/11/18 08:11:07;;;;;;;18.55;13.82;;;;;;;;;;4994490;28;20062;-56
2023/11/18 08:13:33;;;;;;;7.07;6.28;;;;;;;;;;4994162;28;20467;-56
2023/11/18 08:15:58;;;;;;;8.05;5.95;;;;;;;;;;4994070;28;20030;-56
2023/11/18 08:18:24;;;;;;;4.53;4.10;;;;;;;;;;4992979;28;20155;-63
2023/11/18 08:20:49;;;;;;;5.30;4.50;;;;;;;;;;4976207;28;20026;-62
2023/11/18 08:23:15;;;;;;;5.90;4.93;;;;;;;;;;4993803;28;20073;-62
2023/11/18 08:25:40;;;;;;;5.18;4.68;;;;;;;;;;4993918;28;20027;-62
2023/11/18 08:28:07;;;;;;;6.95;4.68;;;;;;;;;;4994209;28;20062;-61
2023/11/18 08:30:33;;;;;;;6.75;5.10;;;;;;;;;;4976330;28;20022;-62
2023/11/18 08:32:59;;;;;;;5.95;5.05;;;;;;;;;;4993296;28;20062;-62
2023/11/18 08:35:25;;;;;;;5.72;4.47;;;;;;;;;;4976628;28;20064;-62
2023/11/18 08:37:52;;;;;;;5.60;4.38;;;;;;;;;;4976527;28;20038;-62
2023/11/18 08:40:21;;;;;;;5.30;4.10;;;;;;;;;;4976332;28;20077;-62
2023/11/18 08:42:49;;;;;;;4.57;4.13;;;;;;;;;;4993173;28;20034;-62
2023/11/18 08:45:18;;;;;;;18.92;9.30;;;;;;;;;;4993995;28;20101;-62
2023/11/18 08:47:44;;;;;;;5.65;3.80;;;;;;;;;;4993906;28;20421;-62
2023/11/18 08:50:12;;;;;;;4.45;4.05;;;;;;;;;;4994084;28;20545;-62
2023/11/18 08:52:43;;;;;;;3.85;2.55;;;;;;;;;;4993727;28;20042;-61
2023/11/18 08:55:17;;;;;;;10.27;6.93;;;;;;;;;;4993597;28;20084;-57
2023/11/18 08:58:00;;;;;;;28.45;12.98;;;;;;;;;;4994093;28;20034;-57
2023/11/18 09:03:17;;;;;;;7.55;4.55;;;;;;;;;;4976176;28;20030;-57
2023/11/18 09:05:55;;;;;;;7.45;5.68;;;;;;;;;;4993557;28;20076;-55
2023/11/18 09:08:22;;;;;;;4.13;3.65;;;;;;;;;;4993519;28;20037;-56
2023/11/18 09:10:48;;;;;;;10.57;6.43;;;;;;;;;;4993779;28;20370;-56
2023/11/18 09:13:14;;;;;;;5.18;4.60;;;;;;;;;;4992517;28;20022;-57
2023/11/18 09:15:40;;;;;;;4.95;4.05;;;;;;;;;;4986643;28;20121;-57
2023/11/18 09:18:09;;;;;;;14.82;7.80;;;;;;;;;;4969127;28;20547;-57
2023/11/18 09:20:35;;;;;;;7.70;5.75;;;;;;;;;;4986872;28;20046;-57
2023/11/18 09:23:01;;;;;;;4.05;3.55;;;;;;;;;;4990585;28;20390;-57
2023/11/18 09:25:28;;;;;;;5.18;4.65;;;;;;;;;;4993318;28;20049;-57
2023/11/18 09:27:53;;;;;;;5.03;4.22;;;;;;;;;;4975569;28;20026;-57
2023/11/18 09:30:19;;;;;;;5.45;4.95;;;;;;;;;;4990995;28;20041;-57
2023/11/18 09:32:47;;;;;;;3.75;3.45;;;;;;;;;;4968723;28;20027;-57
2023/11/18 09:35:13;;;;;;;6.78;5.10;;;;;;;;;;4987057;28;20042;-57
2023/11/18 09:37:40;;;;;;;4.63;4.10;;;;;;;;;;4986286;28;20026;-61
2023/11/18 09:40:11;;;;;;;4.93;4.43;;;;;;;;;;4986618;28;20484;-57
2023/11/18 09:42:38;;;;;;;8.32;6.00;;;;;;;;;;4986429;28;20026;-57
2023/11/18 09:45:05;;;;;;;21.25;11.57;;;;;;;;;;4986059;28;20112;-57
2023/11/18 09:47:37;;;;;;;10.55;7.38;;;;;;;;;;4985958;28;20030;-55
2023/11/18 09:50:05;;;;;;;28.35;13.93;;;;;;;;;;4985702;28;20027;-55
2023/11/18 09:52:33;;;;;;;5.57;5.07;;;;;;;;;;4968070;28;20042;-55
2023/11/18 09:55:02;;;;;;;5.00;4.45;;;;;;;;;;4988412;28;20034;-57
2023/11/18 09:57:33;;;;;;;9.10;7.07;;;;;;;;;;4989635;28;20045;-55
2023/11/18 09:59:59;;;;;;;;;;;;;;;;;;4972547;28;20807;-55
2023/11/18 10:02:25;;;;;;;16.02;10.40;;;;;;;;;;4988963;28;19914;-55
2023/11/18 10:04:57;;;;;;;11.43;7.47;;;;;;;;;;4995133;28;20047;-57
2023/11/18 10:07:26;;;;;;;6.03;4.70;;;;;;;;;;4996713;28;20069;-55
2023/11/18 10:09:57;;;;;;;10.03;6.90;;;;;;;;;;4963045;28;20026;-55
2023/11/18 10:12:23;;;;;;;;;;;;;;;;;;4979656;28;20278;-55
2023/11/18 10:14:51;;;;;;;7.95;5.97;;;;;;;;;;4996602;28;19945;-56
2023/11/18 10:17:18;;;;;;;5.53;5.03;;;;;;;;;;4995645;28;20061;-55
2023/11/18 10:19:55;;;;;;;8.80;6.70;;;;;;;;;;4995972;28;20026;-56
2023/11/18 10:22:22;;;;;;;8.20;6.47;;;;;;;;;;4994280;28;20049;-55
2023/11/18 10:24:49;;;;;;;9.00;7.40;;;;;;;;;;4995012;28;20069;-55
2023/11/18 10:27:14;;;;;;;6.97;6.28;;;;;;;;;;4978416;28;20086;-56
2023/11/18 10:29:40;;;;;;;5.18;4.40;;;;;;;;;;4996114;28;20395;-55
2023/11/18 10:32:16;;;;;;;5.38;4.18;;;;;;;;;;4995927;28;20039;-55
2023/11/18 10:34:42;;;;;;;9.00;5.13;;;;;;;;;;4978367;28;20090;-55
2023/11/18 10:37:10;;;;;;;6.57;5.35;;;;;;;;;;4978312;28;20062;-55
2023/11/18 10:39:36;;;;;;;6.63;5.28;;;;;;;;;;4995335;28;20034;-55
2023/11/18 10:42:02;;;;;;;10.82;6.03;;;;;;;;;;4978255;28;20121;-55
2023/11/18 10:44:29;;;;;;;6.53;4.50;;;;;;;;;;4995668;28;20034;-55
2023/11/18 10:46:56;;;;;;;5.68;5.18;;;;;;;;;;4996179;28;20030;-55
2023/11/18 10:49:21;;;;;;;4.90;4.45;;;;;;;;;;4995483;28;20026;-55
2023/11/18 10:51:47;;;;;;;5.90;4.80;;;;;;;;;;4995873;28;20471;-55
2023/11/18 10:54:17;;;;;;;4.57;4.18;;;;;;;;;;4995556;28;20034;-55
2023/11/18 10:56:56;;;;;;;3.80;3.50;;;;;;;;;;4995966;28;20030;-55
2023/11/18 10:59:22;;;;;;;6.22;5.40;;;;;;;;;;4995715;28;20038;-55
2023/11/18 11:01:48;;;;;;;4.68;4.28;;;;;;;;;;4995871;28;20038;-55
2023/11/18 11:04:21;;;;;;;5.97;4.57;;;;;;;;;;4995433;28;20428;-55
2023/11/18 11:06:56;;;;;;;7.60;5.28;;;;;;;;;;4961047;28;20022;-55
2023/11/18 11:09:35;;;;;;;4.35;3.97;;;;;;;;;;4994948;28;20018;-55
2023/11/18 11:12:04;;;;;;;7.72;5.05;;;;;;;;;;4977740;28;20056;-56
2023/11/18 11:14:37;;;;;;;12.00;7.30;;;;;;;;;;4995508;28;20034;-57
2023/11/18 11:17:13;;;;;;;7.65;4.95;;;;;;;;;;4995950;28;20517;-57
2023/11/18 11:19:48;;;;;;;8.20;4.78;;;;;;;;;;4995329;28;20518;-57
2023/11/18 11:22:20;;;;;;;5.20;4.50;;;;;;;;;;4994890;28;20030;-57
2023/11/18 11:24:52;;;;;;;9.65;5.75;;;;;;;;;;4978639;28;20042;-57
2023/11/18 11:27:28;;;;;;;9.00;5.47;;;;;;;;;;4978403;28;20622;-57
2023/11/18 11:30:00;;;;;;;8.60;5.72;;;;;;;;;;4978386;28;20033;-62
2023/11/18 11:32:30;;;;;;;5.88;4.55;;;;;;;;;;4995564;28;20109;-62
2023/11/18 11:35:05;;;;;;;7.28;4.90;;;;;;;;;;4996062;28;20038;-62
2023/11/18 11:37:34;;;;;;;8.73;6.22;;;;;;;;;;5013998;23;20136;-62
2023/11/18 11:40:04;;;;;;;10.88;6.80;;;;;;;;;;5019885;23;20090;-90
2023/11/18 11:42:55;;;;;;;8.87;5.70;;;;;;;;;;4978724;28;20046;-94
2023/11/18 11:45:42;;;;;;;7.35;4.45;;;;;;;;;;5002333;28;20384;-91
2023/11/18 11:48:36;;;;;;;7.38;4.75;;;;;;;;;;4975145;28;20030;-90
2023/11/18 11:51:04;;;;;;;6.53;5.13;;;;;;;;;;4961596;28;20046;-92
2023/11/18 11:53:32;;;;;;;7.18;6.45;;;;;;;;;;4961600;28;20066;-91
2023/11/18 11:56:31;;;;;;;;;;;;;;;;;;;;;
2023/11/18 11:58:59;;;;;;;4.68;4.28;;;;;;;;;;4978230;28;20050;-91
2023/11/18 12:01:37;;;;;;;6.28;4.78;;;;;;;;;;4995071;28;20030;-89
2023/11/18 12:04:32;;;;;;;13.95;7.30;;;;;;;;;;4995581;28;20453;-92
2023/11/18 12:11:33;;;;;;;3.78;3.47;;;;;;;;;;4932768;28;20046;-94
2023/11/18 12:24:57;;;;;;;5.53;5.03;;;;;;;;;;4934813;29;20046;-92
2023/11/18 12:31:53;;;;;;;4.90;4.20;;;;;;;;;;4881550;29;20067;-94
2023/11/18 12:34:21;;;;;;;7.40;5.32;;;;;;;;;;4843231;29;20529;-91
2023/11/18 12:37:07;;;;;;;7.53;4.72;;;;;;;;;;4846599;29;20029;-92
2023/11/18 12:42:58;;;;;;;7.43;5.10;;;;;;;;;;4971182;28;20117;-94
2023/11/18 12:46:14;;;;;;;9.55;5.68;;;;;;;;;;4979678;28;20038;-92
2023/11/18 12:53:18;;;;;;;5.93;5.18;;;;;;;;;;4995413;28;20501;-94
2023/11/18 12:58:55;;;;;;;7.65;6.47;;;;;;;;;;4934676;29;19921;-93
2023/11/18 13:01:27;;;;;;;6.57;4.88;;;;;;;;;;4918062;29;20561;-92
2023/11/18 13:03:55;;;;;;;8.65;5.55;;;;;;;;;;4919058;29;20047;-92
2023/11/18 13:06:28;;;;;;;8.18;5.57;;;;;;;;;;4918945;29;20032;-92
2023/11/18 13:09:05;;;;;;;6.40;5.43;;;;;;;;;;4911247;29;20043;-91
2023/11/18 13:12:26;;;;;;;10.20;6.35;;;;;;;;;;4912603;29;20091;-92
2023/11/18 13:15:16;;;;;;;9.50;6.72;;;;;;;;;;4932445;29;20047;-92
2023/11/18 13:18:29;;;;;;;9.15;6.43;;;;;;;;;;4958120;28;20042;-94
2023/11/18 13:24:45;;;;;;;7.50;4.88;;;;;;;;;;4876719;29;20166;-90
2023/11/18 13:34:36;;;;;;;;;;;;;;;;;;;;;
2023/11/18 13:37:53;;;;;;;;;;;;;;;;;;4882656;29;20120;-90
2023/11/18 13:58:21;;;;;;;8.05;6.07;;;;;;;;;;4863154;29;20029;-93
2023/11/18 14:01:37;;;;;;;;;;;;;;;;;;;;;
2023/11/18 14:08:44;;;;;;;;;;;;;;;;;;;;;
2023/11/18 14:12:13;;;;;;;5.13;4.72;;;;;;;;;;4806886;29;20672;-91
2023/11/18 14:18:07;;;;;;;4.63;4.20;;;;;;;;;;4826527;29;20132;-92
2023/11/18 14:20:56;;;;;;;;;;;;;;;;;;;;;
2023/11/18 14:24:28;;;;;;;;;;;;;;;;;;;;;
2023/11/18 14:27:36;;;;;;;5.53;4.97;;;;;;;;;;4803981;29;20130;-91
2023/11/18 14:30:16;;;;;;;10.27;6.80;;;;;;;;;;4856163;29;20045;-92
2023/11/18 14:36:44;;;;;;;7.60;6.90;;;;;;;;;;4812492;29;20087;-90
2023/11/18 14:39:33;;;;;;;12.07;7.15;;;;;;;;;;4839131;29;20396;-91
2023/11/18 14:42:10;;;;;;;7.45;6.05;;;;;;;;;;4882685;29;20500;-92
2023/11/18 14:44:38;;;;;;;8.50;6.10;;;;;;;;;;4962825;28;20570;-92
2023/11/18 14:47:06;;;;;;;5.88;5.30;;;;;;;;;;4963568;28;20041;-93
2023/11/18 14:52:42;;;;;;;6.28;5.68;;;;;;;;;;4894660;29;20162;-92
2023/11/18 14:59:00;;;;;;;7.90;6.13;;;;;;;;;;4977553;28;20079;-93
2023/11/18 15:01:26;;;;;;;11.90;6.90;;;;;;;;;;4959577;28;20038;-91
2023/11/18 15:04:37;;;;;;;6.95;6.25;;;;;;;;;;4944851;28;20097;-95
2023/11/18 15:07:58;;;;;;;12.32;6.97;;;;;;;;;;4884688;29;20086;-92
2023/11/18 15:13:52;;;;;;;6.43;5.72;;;;;;;;;;4842060;29;20033;-92
2023/11/18 15:20:12;;;;;;;7.60;6.05;;;;;;;;;;4910576;28;20063;-92
2023/11/18 15:23:50;;;;;;;;;;;;;;;;;;;;;
2023/11/18 15:26:37;;;;;;;8.82;5.93;;;;;;;;;;4924641;29;20058;-92
2023/11/18 15:29:14;;;;;;;10.70;7.63;;;;;;;;;;4978672;28;20496;-93
2023/11/18 15:42:05;;;;;;;;;;;;;;;;;;;;;
2023/11/18 15:44:39;;;;;;;;;;;;;;;;;;4893824;28;20054;-94
2023/11/18 15:51:37;;;;;;;;;;;;;;;;;;;;;
2023/11/18 15:54:06;;;;;;;7.70;6.40;;;;;;;;;;4857428;28;20127;-93
2023/11/18 15:56:43;;;;;;;23.17;15.02;;;;;;;;;;4970920;28;20022;-91
2023/11/18 15:59:34;;;;;;;14.80;10.40;;;;;;;;;;4961900;28;20031;-90
2023/11/18 16:02:26;;;;;;;6.93;5.80;;;;;;;;;;4949397;28;20285;-91
2023/11/18 16:05:45;;;;;;;6.97;6.07;;;;;;;;;;4948717;28;20037;-92
2023/11/18 16:08:51;;;;;;;;;;;;;;;;;;;;;
2023/11/18 16:23:04;;;;;;;14.52;9.60;;;;;;;;;;4849749;29;20049;-92
2023/11/18 16:29:18;;;;;;;;;;;;;;;;;;;;;
2023/11/18 16:31:57;;;;;;;7.50;6.18;;;;;;;;;;4861555;29;20056;-92
2023/11/18 16:38:08;;;;;;;6.47;5.88;;;;;;;;;;4874309;29;20039;-90
2023/11/18 16:40:36;;;;;;;6.32;5.72;;;;;;;;;;4926633;28;20050;-92
2023/11/18 16:43:10;;;;;;;6.82;6.22;;;;;;;;;;4974037;28;20027;-91
2023/11/18 16:45:50;;;;;;;7.15;6.32;;;;;;;;;;4942539;28;20035;-94
2023/11/18 16:48:40;;;;;;;7.93;6.47;;;;;;;;;;4942745;28;20023;-92
2023/11/18 16:51:06;;;;;;;7.03;5.88;;;;;;;;;;4932092;29;20039;-93
2023/11/18 16:53:35;;;;;;;9.65;6.55;;;;;;;;;;4939627;28;20026;-93
2023/11/18 16:56:04;;;;;;;5.97;5.38;;;;;;;;;;4942055;28;20093;-93
2023/11/18 16:58:47;;;;;;;6.32;5.72;;;;;;;;;;4942110;28;20027;-93
2023/11/18 17:01:27;;;;;;;;;;;;;;;;;;;;;
2023/11/18 17:04:09;;;;;;;;;;;;;;;;;;;;;
2023/11/18 17:06:42;;;;;;;6.45;5.85;;;;;;;;;;4958170;28;20035;-93
2023/11/18 17:09:25;;;;;;;6.93;6.32;;;;;;;;;;4959999;28;20373;-93
2023/11/18 17:11:56;;;;;;;8.07;7.28;;;;;;;;;;4942358;28;20031;-93
2023/11/18 17:14:27;;;;;;;8.43;6.88;;;;;;;;;;4974049;28;20113;-90
2023/11/18 17:17:10;;;;;;;12.50;10.18;;;;;;;;;;4941554;28;20042;-90
2023/11/18 17:26:56;;;;;;;12.00;8.20;;;;;;;;;;4931452;28;20042;-93